Time;durP1;ratioP1;P1;durP2;ratioP2;P2;SDS_P1;SDS_P2;PMS_P1;PMS_P2;Temp;Humidity;BMP_temperature;BMP_pressure;BME280_temperature;BME280_humidity;BME280_pressure;Samples;Min_cycle;Max_cycle;Signal;HPM_P1;HPM_P2
2023/10/23 00:00:43;;;;;;;5.73;1.83;;;;;;;15.85;100.00;101407.97;2070400;28;20274;-69
2023/10/23 00:01:43;;;;;;;5.87;1.80;;;;;;;15.86;100.00;101406.72;2066111;28;20174;-69
2023/10/23 00:02:44;;;;;;;3.20;1.67;;;;;;;15.88;100.00;101406.28;2072597;28;20184;-69
2023/10/23 00:03:44;;;;;;;6.30;1.87;;;;;;;15.90;100.00;101403.81;2065515;28;20236;-69
2023/10/23 00:04:45;;;;;;;4.93;1.60;;;;;;;15.92;100.00;101404.13;2072815;28;20225;-69
2023/10/23 00:05:45;;;;;;;4.60;1.80;;;;;;;15.93;100.00;101412.06;2073170;28;20669;-69
2023/10/23 00:06:46;;;;;;;4.13;1.70;;;;;;;15.96;100.00;101407.59;2073039;28;20220;-69
2023/10/23 00:07:46;;;;;;;6.80;1.67;;;;;;;15.98;100.00;101405.91;2068457;28;20202;-69
2023/10/23 00:08:47;;;;;;;4.03;1.77;;;;;;;15.99;100.00;101410.25;2067730;28;20221;-69
2023/10/23 00:09:47;;;;;;;3.37;1.63;;;;;;;16.00;100.00;101409.06;2074143;28;20280;-69
2023/10/23 00:10:48;;;;;;;3.17;1.70;;;;;;;16.02;100.00;101400.19;2080113;28;20256;-69
2023/10/23 00:11:49;;;;;;;3.87;1.50;;;;;;;16.02;100.00;101408.59;2065010;28;20256;-69
2023/10/23 00:12:49;;;;;;;3.63;1.67;;;;;;;15.42;100.00;101309.22;2065115;28;20456;-69
2023/10/23 00:13:50;;;;;;;5.17;1.50;;;;;;;16.02;100.00;101411.38;2065010;28;20271;-69
2023/10/23 00:14:50;;;;;;;2.70;1.53;;;;;;;16.03;100.00;101407.38;2070271;28;20220;-69
2023/10/23 00:15:51;;;;;;;3.40;1.50;;;;;;;16.02;100.00;101405.78;2072250;28;20193;-69
2023/10/23 00:16:52;;;;;;;5.27;1.90;;;;;;;15.37;100.00;101307.00;2072581;28;20193;-69
2023/10/23 00:17:52;;;;;;;2.80;1.50;;;;;;;15.97;100.00;101401.56;2071908;28;20186;-69
2023/10/23 00:18:53;;;;;;;3.40;1.47;;;;;;;16.01;100.00;101401.44;2072090;28;20423;-69
2023/10/23 00:19:53;;;;;;;3.00;1.30;;;;;;;15.78;100.00;101357.09;2065368;28;20718;-69
2023/10/23 00:20:54;;;;;;;3.93;1.70;;;;;;;16.04;100.00;101392.91;2080004;28;20197;-69
2023/10/23 00:21:54;;;;;;;3.33;1.63;;;;;;;16.06;100.00;101398.06;2074203;28;20188;-69
2023/10/23 00:22:54;;;;;;;2.47;1.40;;;;;;;15.54;100.00;101312.00;2072996;28;20660;-69
2023/10/23 00:23:55;;;;;;;3.93;1.47;;;;;;;16.08;100.00;101390.78;2072908;28;20281;-69
2023/10/23 00:24:55;;;;;;;5.17;1.47;;;;;;;16.03;100.00;101382.97;2064303;28;20254;-69
2023/10/23 00:25:56;;;;;;;3.87;1.90;;;;;;;16.09;100.00;101391.59;2063896;28;20227;-69
2023/10/23 00:26:56;;;;;;;4.73;1.43;;;;;;;16.02;100.00;101380.63;2072738;28;20185;-69
2023/10/23 00:27:57;;;;;;;4.90;1.63;;;;;;;16.07;100.00;101389.22;2073211;28;20171;-69
2023/10/23 00:28:57;;;;;;;1.73;1.03;;;;;;;16.07;100.00;101389.22;2072733;28;20192;-69
2023/10/23 00:29:59;;;;;;;4.70;1.50;;;;;;;16.07;100.00;101388.44;2066142;28;20644;-69
2023/10/23 00:31:00;;;;;;;5.77;1.63;;;;;;;16.09;100.00;101394.38;2070497;28;20194;-69
2023/10/23 00:32:01;;;;;;;5.50;1.97;;;;;;;16.07;100.00;101383.66;2069244;28;20480;-69
2023/10/23 00:33:01;;;;;;;3.87;1.40;;;;;;;15.72;100.00;101328.94;2072891;28;20445;-69
2023/10/23 00:34:02;;;;;;;2.67;1.10;;;;;;;16.08;100.00;101393.59;2072945;28;20228;-69
2023/10/23 00:35:03;;;;;;;3.27;1.73;;;;;;;16.09;100.00;101392.34;2071943;28;20783;-69
2023/10/23 00:36:04;;;;;;;2.23;1.43;;;;;;;16.06;100.00;101386.88;2065138;28;20754;-69
2023/10/23 00:37:04;;;;;;;3.53;1.47;;;;;;;16.12;100.00;101399.06;2064563;28;20790;-69
2023/10/23 00:38:05;;;;;;;4.27;1.30;;;;;;;16.13;100.00;101400.63;2078140;28;20189;-69
2023/10/23 00:39:06;;;;;;;3.77;1.40;;;;;;;16.12;100.00;101397.06;2075003;28;20193;-69
2023/10/23 00:40:08;;;;;;;4.00;1.27;;;;;;;15.98;100.00;101380.75;2069446;28;20437;-69
2023/10/23 00:41:08;;;;;;;1.60;0.90;;;;;;;16.12;100.00;101394.25;2073031;28;20440;-69
2023/10/23 00:42:09;;;;;;;3.63;1.63;;;;;;;16.11;100.00;101398.28;2072489;28;20170;-69
2023/10/23 00:43:20;;;;;;;2.13;1.60;;;;;;;16.10;100.00;101402.31;2072898;28;20616;-69
2023/10/23 00:44:21;;;;;;;4.13;1.50;;;;;;;16.11;100.00;101400.28;2072453;28;20235;-69
2023/10/23 00:45:21;;;;;;;2.80;1.07;;;;;;;16.11;100.00;101397.50;2072973;28;20485;-69
2023/10/23 00:46:23;;;;;;;2.30;1.17;;;;;;;15.62;100.00;101330.06;2073324;28;20209;-69
2023/10/23 00:47:25;;;;;;;3.33;1.40;;;;;;;16.11;100.00;101398.28;2072353;28;20671;-69
2023/10/23 00:48:26;;;;;;;3.07;1.50;;;;;;;16.12;100.00;101408.22;2069299;28;20448;-69
2023/10/23 00:49:27;;;;;;;2.27;1.07;;;;;;;15.58;100.00;101320.25;2066450;28;20841;-69
2023/10/23 00:50:28;;;;;;;7.07;2.10;;;;;;;16.10;100.00;101405.13;2068037;28;20456;-69
2023/10/23 00:51:30;;;;;;;3.60;1.97;;;;;;;15.78;100.00;101355.06;2067658;28;20188;-69
2023/10/23 00:52:30;;;;;;;4.17;1.47;;;;;;;15.73;100.00;101347.25;2072663;28;20279;-69
2023/10/23 00:53:36;;;;;;;5.03;1.43;;;;;;;16.10;100.00;101407.91;2072898;28;20420;-69
2023/10/23 00:54:38;;;;;;;2.87;1.27;;;;;;;16.11;100.00;101403.09;2072581;28;20252;-69
2023/10/23 00:55:39;;;;;;;2.83;1.40;;;;;;;16.10;100.00;101407.13;2072970;28;20427;-69
2023/10/23 00:56:41;;;;;;;3.47;1.73;;;;;;;16.11;100.00;101398.28;2065163;28;20425;-69
2023/10/23 00:57:41;;;;;;;3.83;1.43;;;;;;;16.11;100.00;101406.69;2064141;28;20518;-69
2023/10/23 00:58:42;;;;;;;2.17;1.57;;;;;;;16.12;100.00;101413.03;2070134;28;20526;-69
2023/10/23 00:59:43;;;;;;;3.67;1.40;;;;;;;16.12;100.00;101408.22;2072947;28;20541;-69
2023/10/23 01:00:44;;;;;;;5.13;1.27;;;;;;;16.10;100.00;101413.50;2072648;28;20194;-69
2023/10/23 01:01:47;;;;;;;6.33;1.30;;;;;;;16.09;100.00;101413.94;2072310;28;20194;-69
2023/10/23 01:02:49;;;;;;;5.23;1.90;;;;;;;15.93;100.00;101397.34;2072778;28;20507;-69
2023/10/23 01:03:50;;;;;;;4.17;1.83;;;;;;;16.08;100.00;101420.78;2072485;28;20422;-69
2023/10/23 01:04:51;;;;;;;4.97;1.37;;;;;;;16.07;100.00;101419.19;2080549;28;20670;-69
2023/10/23 01:05:52;;;;;;;4.90;1.60;;;;;;;16.07;100.00;101414.41;2080609;28;20344;-70
2023/10/23 01:06:52;;;;;;;4.77;1.43;;;;;;;16.05;100.00;101421.66;2065794;28;20483;-70
2023/10/23 01:07:54;;;;;;;4.17;1.20;;;;;;;16.06;100.00;101420.44;2070049;28;20556;-70
2023/10/23 01:08:55;;;;;;;2.40;1.10;;;;;;;15.44;100.00;101331.91;2072388;28;20191;-70
2023/10/23 01:09:56;;;;;;;6.63;1.37;;;;;;;15.95;100.00;101420.81;2068694;28;21005;-70
2023/10/23 01:10:58;;;;;;;6.37;0.97;;;;;;;15.97;100.00;101437.09;2064583;28;20194;-70
2023/10/23 01:11:58;;;;;;;11.97;2.50;;;;;;;15.87;100.00;101410.28;2066275;28;20182;-70
2023/10/23 01:12:59;;;;;;;7.37;1.80;;;;;;;16.04;100.00;101423.69;2080172;28;20424;-70
2023/10/23 01:13:59;;;;;;;5.90;1.30;;;;;;;15.37;100.00;101313.34;2073060;28;20254;-69
2023/10/23 01:15:00;;;;;;;2.93;1.03;;;;;;;16.05;100.00;101416.09;2064930;28;20186;-70
2023/10/23 01:16:00;;;;;;;3.93;1.17;;;;;;;16.07;100.00;101416.41;2070698;28;20201;-69
2023/10/23 01:17:01;;;;;;;3.13;1.00;;;;;;;16.08;100.00;101418.00;2072387;28;20186;-70
2023/10/23 01:18:03;;;;;;;3.57;1.33;;;;;;;16.09;100.00;101423.09;2067272;28;20197;-69
2023/10/23 01:19:04;;;;;;;1.60;1.03;;;;;;;16.10;100.00;101421.09;2068792;28;20194;-69
2023/10/23 01:20:08;;;;;;;5.77;1.40;;;;;;;16.12;100.00;101421.41;2065447;28;20424;-70
2023/10/23 01:21:09;;;;;;;11.53;1.77;;;;;;;16.12;100.00;101422.22;2070832;28;20452;-70
2023/10/23 01:22:09;;;;;;;4.20;1.53;;;;;;;16.12;100.00;101416.63;2072243;28;20449;-69
2023/10/23 01:23:09;;;;;;;5.63;1.47;;;;;;;15.80;100.00;101372.19;2064888;28;20558;-69
2023/10/23 01:24:12;;;;;;;6.63;1.70;;;;;;;16.10;100.00;101432.28;2071524;28;20201;-70
2023/10/23 01:25:16;;;;;;;7.23;1.43;;;;;;;15.94;100.00;101407.28;2072284;28;20576;-69
2023/10/23 01:26:16;;;;;;;2.60;0.77;;;;;;;16.10;100.00;101424.69;2072051;28;20448;-69
2023/10/23 01:27:17;;;;;;;3.93;1.47;;;;;;;16.11;100.00;101422.66;2067799;28;20982;-69
2023/10/23 01:28:18;;;;;;;4.33;1.47;;;;;;;16.11;100.00;101417.88;2067265;28;20186;-69
2023/10/23 01:29:18;;;;;;;9.67;2.00;;;;;;;16.08;100.00;101409.59;2072281;28;20623;-69
2023/10/23 01:30:19;;;;;;;7.23;1.87;;;;;;;15.87;100.00;101385.91;2072525;28;20210;-69
2023/10/23 01:31:20;;;;;;;8.07;1.17;;;;;;;16.11;100.00;101414.28;2072660;28;20592;-69
2023/10/23 01:32:20;;;;;;;4.73;1.70;;;;;;;16.14;100.00;101419.75;2068352;28;20441;-69
2023/10/23 01:33:20;;;;;;;2.63;1.20;;;;;;;16.16;100.00;101422.09;2072213;28;20290;-69
2023/10/23 01:34:21;;;;;;;4.60;1.40;;;;;;;16.16;100.00;101416.50;2067196;28;20272;-69
2023/10/23 01:35:21;;;;;;;9.67;1.27;;;;;;;16.15;100.00;101426.91;2055543;28;20214;-69
2023/10/23 01:36:22;;;;;;;6.70;1.50;;;;;;;16.12;100.00;101416.63;2058903;28;20225;-69
2023/10/23 01:37:23;;;;;;;4.47;1.40;;;;;;;16.12;100.00;101424.22;2065632;28;20276;-69
2023/10/23 01:38:23;;;;;;;7.33;1.80;;;;;;;16.08;100.00;101421.53;2072078;28;20200;-69
2023/10/23 01:39:23;;;;;;;7.83;1.13;;;;;;;16.00;100.00;101405.47;2072128;28;20185;-69
2023/10/23 01:40:24;;;;;;;3.03;1.13;;;;;;;16.05;100.00;101414.09;2072529;28;20180;-69
2023/10/23 01:41:24;;;;;;;3.70;1.47;;;;;;;16.09;100.00;101422.34;2071837;28;20189;-69
2023/10/23 01:42:30;;;;;;;3.93;1.50;;;;;;;15.62;100.00;101363.59;2072355;28;20191;-69
2023/10/23 01:43:30;;;;;;;3.30;1.40;;;;;;;15.52;100.00;101334.00;2072348;28;20581;-69
2023/10/23 01:44:31;;;;;;;4.13;1.10;;;;;;;15.51;100.00;101351.19;2069883;28;20452;-69
2023/10/23 01:45:31;;;;;;;5.83;1.27;;;;;;;16.11;100.00;101428.25;2072198;28;20181;-69
2023/10/23 01:46:32;;;;;;;7.10;2.17;;;;;;;16.11;100.00;101429.03;2072116;28;20237;-69
2023/10/23 01:47:32;;;;;;;3.10;1.13;;;;;;;16.10;100.00;101435.88;2071995;28;20182;-69
2023/10/23 01:48:32;;;;;;;3.93;1.40;;;;;;;15.96;100.00;101413.19;2071721;28;20181;-69
2023/10/23 01:49:33;;;;;;;9.07;1.80;;;;;;;15.96;100.00;101410.38;2072434;28;20662;-69
2023/10/23 01:50:34;;;;;;;4.80;1.00;;;;;;;15.78;100.00;101385.81;2065927;28;20268;-69
2023/10/23 01:51:34;;;;;;;3.03;1.53;;;;;;;16.05;100.00;101430.06;2068687;28;20197;-69
2023/10/23 01:52:35;;;;;;;2.33;1.17;;;;;;;15.84;100.00;101403.56;2072310;28;20632;-69
2023/10/23 01:53:35;;;;;;;3.03;1.20;;;;;;;16.03;100.00;101430.50;2071863;28;20351;-69
2023/10/23 01:54:36;;;;;;;2.53;1.23;;;;;;;16.03;100.00;101421.34;2070951;28;20261;-69
2023/10/23 01:55:36;;;;;;;7.50;1.40;;;;;;;16.04;100.00;101426.47;2064444;28;20649;-69
2023/10/23 01:56:37;;;;;;;4.33;1.40;;;;;;;15.85;100.00;101404.38;2072757;28;20178;-69
2023/10/23 01:57:37;;;;;;;4.27;1.20;;;;;;;15.77;100.00;101394.69;2071963;28;20182;-69
2023/10/23 01:58:38;;;;;;;2.20;1.20;;;;;;;16.02;100.00;101431.75;2072150;28;20200;-69
2023/10/23 01:59:39;;;;;;;4.40;1.50;;;;;;;16.00;100.00;101433.41;2072146;28;20224;-69
2023/10/23 02:00:39;;;;;;;9.80;1.20;;;;;;;15.90;100.00;101418.56;2072355;28;20181;-69
2023/10/23 02:01:40;;;;;;;3.73;1.10;;;;;;;15.97;100.00;101425.94;2069013;28;20222;-69
2023/10/23 02:02:41;;;;;;;4.53;1.10;;;;;;;15.96;100.00;101444.72;2065721;28;20189;-69
2023/10/23 02:03:41;;;;;;;3.63;1.13;;;;;;;15.83;100.00;101413.19;2072292;28;20260;-69
2023/10/23 02:04:42;;;;;;;3.53;1.27;;;;;;;15.96;100.00;101439.13;2072847;28;20232;-69
2023/10/23 02:05:42;;;;;;;1.63;0.97;;;;;;;15.95;100.00;101434.00;2079754;28;20278;-69
2023/10/23 02:06:43;;;;;;;5.13;1.40;;;;;;;15.79;100.00;101412.53;2074153;28;20195;-69
2023/10/23 02:07:43;;;;;;;3.67;1.07;;;;;;;15.91;100.00;101433.31;2067597;28;20337;-69
2023/10/23 02:08:44;;;;;;;4.17;1.07;;;;;;;15.88;100.00;101432.19;2067223;28;20640;-69
2023/10/23 02:09:44;;;;;;;4.57;1.47;;;;;;;15.81;100.00;101423.25;2072300;28;20203;-69
2023/10/23 02:10:45;;;;;;;3.20;1.43;;;;;;;15.41;100.00;101360.72;2070552;28;20185;-69
2023/10/23 02:11:46;;;;;;;5.57;1.40;;;;;;;15.91;100.00;101442.50;2063661;28;20184;-69
2023/10/23 02:12:46;;;;;;;1.77;1.17;;;;;;;15.90;100.00;101446.53;2064621;28;20170;-69
2023/10/23 02:13:47;;;;;;;4.20;1.30;;;;;;;15.68;100.00;101408.53;2064457;28;20190;-69
2023/10/23 02:14:50;;;;;;;3.73;1.20;;;;;;;15.31;100.00;101353.44;2070536;28;20233;-69
2023/10/23 02:15:50;;;;;;;4.73;1.47;;;;;;;15.91;100.00;101448.09;2066601;28;20301;-69
2023/10/23 02:16:51;;;;;;;4.20;1.47;;;;;;;15.91;100.00;101450.09;2068408;28;20451;-69
2023/10/23 02:17:51;;;;;;;4.83;1.33;;;;;;;15.91;100.00;101450.09;2068703;28;20199;-69
2023/10/23 02:18:52;;;;;;;1.87;1.00;;;;;;;15.90;100.00;101443.72;2067877;28;20660;-69
2023/10/23 02:19:52;;;;;;;3.53;1.57;;;;;;;15.87;100.00;101449.41;2079123;28;20224;-69
2023/10/23 02:20:53;;;;;;;2.97;1.60;;;;;;;15.80;100.00;101442.06;2072153;28;20661;-69
2023/10/23 02:21:53;;;;;;;2.47;1.20;;;;;;;15.77;100.00;101439.38;2071628;28;20198;-69
2023/10/23 02:22:54;;;;;;;2.87;1.40;;;;;;;15.71;100.00;101441.16;2072102;28;20601;-69
2023/10/23 02:23:54;;;;;;;2.60;1.20;;;;;;;15.76;100.00;101443.41;2071880;28;20197;-69
2023/10/23 02:24:55;;;;;;;5.43;1.47;;;;;;;15.72;100.00;101435.13;2067597;28;20281;-69
2023/10/23 02:25:55;;;;;;;2.73;1.20;;;;;;;15.76;100.00;101448.97;2067100;28;20231;-69
2023/10/23 02:26:56;;;;;;;3.07;1.40;;;;;;;15.75;100.00;101437.03;2071410;28;20263;-69
2023/10/23 02:27:56;;;;;;;3.67;1.40;;;;;;;15.72;100.00;101439.94;2070692;28;20184;-69
2023/10/23 02:28:57;;;;;;;3.80;1.20;;;;;;;15.72;100.00;101443.50;2064353;28;20190;-69
2023/10/23 02:29:58;;;;;;;2.17;0.83;;;;;;;15.76;100.00;101455.38;2064272;28;20566;-69
2023/10/23 02:31:03;;;;;;;3.47;1.50;;;;;;;15.77;100.00;101448.53;2071383;28;20188;-69
2023/10/23 02:32:04;;;;;;;4.00;1.50;;;;;;;15.77;100.00;101448.53;2071721;28;20201;-69
2023/10/23 02:33:05;;;;;;;2.23;1.20;;;;;;;15.76;100.00;101452.56;2066909;28;20437;-69
2023/10/23 02:34:05;;;;;;;4.33;1.47;;;;;;;15.77;100.00;101450.56;2067792;28;20199;-69
2023/10/23 02:35:06;;;;;;;4.93;1.60;;;;;;;15.73;100.00;101450.66;2068583;28;20970;-69
2023/10/23 02:36:07;;;;;;;3.63;1.50;;;;;;;15.77;100.00;101454.13;2063930;28;20184;-69
2023/10/23 02:37:07;;;;;;;3.67;1.47;;;;;;;15.76;100.00;101452.56;2064421;28;20182;-69
2023/10/23 02:38:07;;;;;;;6.73;1.47;;;;;;;15.72;100.00;101443.50;2063820;28;20179;-69
2023/10/23 02:39:09;;;;;;;2.17;1.20;;;;;;;15.73;100.00;101452.69;2063296;28;20197;-69
2023/10/23 02:40:11;;;;;;;3.80;1.23;;;;;;;15.75;100.00;101462.19;2063392;28;20278;-69
2023/10/23 02:41:12;;;;;;;3.03;1.40;;;;;;;15.71;100.00;101447.53;2063527;28;20455;-69
2023/10/23 02:42:12;;;;;;;5.23;1.37;;;;;;;15.66;100.00;101441.72;2075860;28;20494;-69
2023/10/23 02:43:13;;;;;;;3.43;1.57;;;;;;;15.73;100.00;101461.84;2076585;28;20196;-69
2023/10/23 02:44:14;;;;;;;2.83;1.17;;;;;;;15.74;100.00;101451.44;2072039;28;20176;-69
2023/10/23 02:45:15;;;;;;;2.10;1.10;;;;;;;15.74;100.00;101454.25;2071761;28;20177;-69
2023/10/23 02:46:16;;;;;;;2.97;1.30;;;;;;;15.45;100.00;101420.03;2071870;28;20967;-69
2023/10/23 02:47:16;;;;;;;3.07;1.40;;;;;;;15.23;100.00;101388.38;2079552;28;20466;-69
2023/10/23 02:48:17;;;;;;;2.30;1.20;;;;;;;15.67;100.00;101455.25;2072059;28;20204;-69
2023/10/23 02:49:17;;;;;;;2.97;0.97;;;;;;;15.65;100.00;101457.72;2063287;28;20214;-69
2023/10/23 02:50:18;;;;;;;2.80;1.50;;;;;;;15.67;100.00;101463.63;2068945;28;20280;-69
2023/10/23 02:51:18;;;;;;;5.80;1.60;;;;;;;15.64;100.00;101458.16;2071398;28;20209;-69
2023/10/23 02:52:19;;;;;;;6.13;1.30;;;;;;;15.66;100.00;101462.06;2072035;28;20730;-69
2023/10/23 02:53:19;;;;;;;4.67;1.33;;;;;;;15.55;100.00;101461.63;2071931;28;20710;-69
2023/10/23 02:54:20;;;;;;;4.47;1.60;;;;;;;15.62;100.00;101461.41;2063041;28;20636;-70
2023/10/23 02:55:20;;;;;;;3.43;1.53;;;;;;;15.54;100.00;101459.28;2055684;28;20707;-70
2023/10/23 02:56:21;;;;;;;3.87;1.50;;;;;;;14.64;100.00;101316.41;2071206;28;20237;-70
2023/10/23 02:57:21;;;;;;;7.47;1.47;;;;;;;15.62;100.00;101463.41;2071815;28;20197;-70
2023/10/23 02:58:21;;;;;;;3.23;1.47;;;;;;;15.60;100.00;101457.47;2071597;28;20266;-70
2023/10/23 02:59:22;;;;;;;3.50;1.70;;;;;;;15.62;100.00;101461.41;2072077;28;20211;-70
2023/10/23 03:00:23;;;;;;;3.77;1.67;;;;;;;15.32;100.00;101413.66;2071547;28;20207;-70
2023/10/23 03:01:24;;;;;;;2.87;1.73;;;;;;;15.62;100.00;101463.41;2071717;28;20659;-70
2023/10/23 03:02:25;;;;;;;2.97;1.20;;;;;;;15.57;100.00;101459.16;2071847;28;20706;-70
2023/10/23 03:03:26;;;;;;;6.37;1.40;;;;;;;15.48;100.00;101436.69;2071800;28;20460;-70
2023/10/23 03:04:26;;;;;;;4.43;1.33;;;;;;;15.60;100.00;101465.84;2071878;28;20242;-70
2023/10/23 03:05:27;;;;;;;6.30;1.60;;;;;;;15.58;100.00;101463.50;2077728;28;20254;-70
2023/10/23 03:06:27;;;;;;;5.77;1.83;;;;;;;15.54;100.00;101462.84;2074974;28;20265;-70
2023/10/23 03:07:28;;;;;;;5.03;1.70;;;;;;;15.54;100.00;101462.84;2071761;28;20190;-70
2023/10/23 03:08:28;;;;;;;2.93;1.27;;;;;;;15.53;100.00;101463.31;2068802;28;20590;-70
2023/10/23 03:09:29;;;;;;;3.00;1.20;;;;;;;15.54;100.00;101464.84;2065617;28;20171;-70
2023/10/23 03:10:30;;;;;;;6.63;1.53;;;;;;;14.83;100.00;101362.88;2071920;28;20682;-70
2023/10/23 03:11:31;;;;;;;3.50;1.40;;;;;;;15.46;100.00;101472.66;2072128;28;20555;-70
2023/10/23 03:12:31;;;;;;;3.53;1.83;;;;;;;15.50;100.00;101470.56;2073475;28;20468;-70
2023/10/23 03:13:33;;;;;;;4.27;1.70;;;;;;;15.52;100.00;101472.91;2073722;28;20193;-70
2023/10/23 03:14:34;;;;;;;2.57;1.23;;;;;;;15.51;100.00;101465.72;2073461;28;20229;-70
2023/10/23 03:15:36;;;;;;;5.07;1.40;;;;;;;14.89;100.00;101372.25;2069096;28;20441;-70
2023/10/23 03:16:37;;;;;;;3.93;1.90;;;;;;;15.43;100.00;101456.78;2068611;28;20194;-70
2023/10/23 03:17:37;;;;;;;2.97;1.10;;;;;;;15.29;100.00;101431.28;2072616;28;20448;-70
2023/10/23 03:18:37;;;;;;;4.30;1.60;;;;;;;15.55;100.00;101475.59;2072071;28;20205;-70
2023/10/23 03:19:38;;;;;;;2.97;1.80;;;;;;;15.43;100.00;101459.59;2065582;28;20553;-70
2023/10/23 03:20:40;;;;;;;3.83;1.87;;;;;;;15.59;100.00;101481.06;2073892;28;20209;-70
2023/10/23 03:21:40;;;;;;;3.53;1.53;;;;;;;15.58;100.00;101471.13;2073065;28;20235;-70
2023/10/23 03:22:40;;;;;;;4.33;1.30;;;;;;;15.56;100.00;101477.16;2067346;28;20445;-70
2023/10/23 03:23:41;;;;;;;7.43;1.53;;;;;;;15.57;100.00;101475.91;2070086;28;20195;-70
2023/10/23 03:24:42;;;;;;;3.13;1.40;;;;;;;15.54;100.00;101476.81;2073226;28;20203;-70
2023/10/23 03:25:42;;;;;;;9.60;1.73;;;;;;;15.48;100.00;101461.06;2071291;28;20666;-70
2023/10/23 03:26:43;;;;;;;2.30;1.20;;;;;;;15.58;100.00;101476.72;2073048;28;20642;-70
2023/10/23 03:27:43;;;;;;;3.63;1.23;;;;;;;15.59;100.00;101484.66;2072871;28;20185;-70
2023/10/23 03:28:44;;;;;;;4.77;1.30;;;;;;;15.55;100.00;101474.78;2064847;28;20598;-69
2023/10/23 03:29:44;;;;;;;3.40;1.40;;;;;;;15.53;100.00;101475.25;2064549;28;20193;-70
2023/10/23 03:30:45;;;;;;;5.80;1.20;;;;;;;15.47;100.00;101468.66;2073007;28;20267;-70
2023/10/23 03:31:45;;;;;;;2.27;1.03;;;;;;;15.15;100.00;101423.31;2080446;28;20200;-70
2023/10/23 03:32:46;;;;;;;5.53;1.47;;;;;;;15.50;100.00;101472.56;2077292;28;20248;-70
2023/10/23 03:33:46;;;;;;;3.97;1.30;;;;;;;15.54;100.00;101473.25;2067725;28;20175;-70
2023/10/23 03:34:47;;;;;;;2.63;1.17;;;;;;;15.57;100.00;101473.13;2072042;28;20232;-70
2023/10/23 03:35:48;;;;;;;4.27;1.50;;;;;;;14.96;100.00;101388.78;2065490;28;20241;-70
2023/10/23 03:36:48;;;;;;;4.37;1.40;;;;;;;15.52;100.00;101472.91;2073913;28;20216;-70
2023/10/23 03:37:48;;;;;;;11.17;1.50;;;;;;;15.53;100.00;101466.84;2073103;28;20671;-70
2023/10/23 03:38:49;;;;;;;3.20;1.33;;;;;;;15.54;100.00;101465.66;2072974;28;20264;-70
2023/10/23 03:39:49;;;;;;;4.40;1.30;;;;;;;15.14;100.00;101418.97;2077544;28;20198;-70
2023/10/23 03:40:57;;;;;;;4.67;1.00;;;;;;;15.43;100.00;101467.19;2074173;28;20635;-70
2023/10/23 03:41:58;;;;;;;4.20;1.30;;;;;;;15.19;100.00;101437.97;2072796;28;20274;-70
2023/10/23 03:42:58;;;;;;;3.50;1.10;;;;;;;15.22;100.00;101440.66;2073453;28;20410;-70
2023/10/23 03:44:01;;;;;;;5.83;2.33;;;;;;;15.40;100.00;101466.06;2073070;28;20181;-70
2023/10/23 03:45:06;;;;;;;1.40;0.97;;;;;;;15.42;100.00;101460.81;2072348;28;20212;-70
2023/10/23 03:46:06;;;;;;;4.87;1.90;;;;;;;15.43;100.00;101465.16;2073739;28;20774;-70
2023/10/23 03:47:07;;;;;;;3.93;1.37;;;;;;;15.42;100.00;101463.59;2065235;28;20487;-70
2023/10/23 03:48:07;;;;;;;6.00;2.30;;;;;;;15.43;100.00;101470.75;2071557;28;20222;-70
2023/10/23 03:49:08;;;;;;;3.60;1.50;;;;;;;15.00;100.00;101380.31;2073102;28;20189;-70
2023/10/23 03:50:08;;;;;;;6.67;1.30;;;;;;;15.40;100.00;101442.94;2073194;28;20209;-69
2023/10/23 03:51:09;;;;;;;5.77;1.40;;;;;;;15.52;100.00;101459.72;2070335;28;20204;-70
2023/10/23 03:52:09;;;;;;;6.27;1.40;;;;;;;15.50;100.00;101467.75;2072953;28;20566;-70
2023/10/23 03:53:10;;;;;;;3.13;1.10;;;;;;;15.53;100.00;101466.84;2074928;28;20186;-70
2023/10/23 03:54:11;;;;;;;3.40;1.20;;;;;;;15.54;100.00;101468.44;2073033;28;20568;-67
2023/10/23 03:55:11;;;;;;;6.00;1.20;;;;;;;15.50;100.00;101458.59;2065278;28;20217;-72
2023/10/23 03:56:12;;;;;;;3.07;1.33;;;;;;;15.58;100.00;101471.13;2067567;28;20209;-70
2023/10/23 03:57:12;;;;;;;4.20;1.20;;;;;;;15.51;100.00;101460.94;2064211;28;20190;-70
2023/10/23 03:58:13;;;;;;;2.23;0.97;;;;;;;15.61;100.00;101470.22;2064333;28;20256;-67
2023/10/23 03:59:13;;;;;;;2.73;1.37;;;;;;;15.73;100.00;101469.47;2068041;28;20177;-70
2023/10/23 04:00:14;;;;;;;2.17;1.33;;;;;;;16.12;100.00;101463.38;2070617;28;20189;-67
2023/10/23 04:01:15;;;;;;;2.33;1.10;;;;;;;16.24;100.00;101462.56;2066638;28;20190;-71
2023/10/23 04:02:15;;;;;;;5.30;1.50;;;;;;;16.24;100.00;101466.13;2069841;28;20202;-74
2023/10/23 04:03:16;;;;;;;6.77;1.57;;;;;;;16.04;100.00;101432.06;2072028;28;20243;-73
2023/10/23 04:04:16;;;;;;;5.43;1.40;;;;;;;16.16;100.00;101458.44;2072551;28;20691;-75
2023/10/23 04:05:17;;;;;;;2.60;1.20;;;;;;;16.18;100.00;101453.97;2072682;28;20631;-74
2023/10/23 04:06:17;;;;;;;4.30;1.40;;;;;;;16.15;100.00;101457.69;2072437;28;20210;-74
2023/10/23 04:07:17;;;;;;;6.27;1.57;;;;;;;16.14;100.00;101458.13;2070885;28;20219;-70
2023/10/23 04:08:18;;;;;;;4.67;1.40;;;;;;;16.12;100.00;101460.56;2066968;28;20261;-69
2023/10/23 04:09:18;;;;;;;4.40;1.30;;;;;;;16.11;100.00;101461.81;2073603;28;20187;-68
2023/10/23 04:10:19;;;;;;;3.10;1.40;;;;;;;16.09;100.00;101458.69;2073780;28;20648;-68
2023/10/23 04:11:20;;;;;;;2.63;1.13;;;;;;;16.05;100.00;101450.44;2064065;28;20710;-70
2023/10/23 04:12:20;;;;;;;5.37;1.33;;;;;;;16.05;100.00;101466.41;2063238;28;20214;-74
2023/10/23 04:13:21;;;;;;;3.23;1.17;;;;;;;16.06;100.00;101460.38;2071889;28;20186;-72
2023/10/23 04:14:21;;;;;;;3.43;1.57;;;;;;;15.77;100.00;101426.19;2072450;28;20227;-70
2023/10/23 04:15:22;;;;;;;2.37;1.17;;;;;;;16.04;100.00;101459.25;2072457;28;20751;-70
2023/10/23 04:16:22;;;;;;;4.83;1.10;;;;;;;16.04;100.00;101468.41;2071591;28;20587;-69
2023/10/23 04:17:23;;;;;;;6.50;1.20;;;;;;;16.00;100.00;101464.97;2071641;28;20260;-70
2023/10/23 04:18:27;;;;;;;2.40;1.30;;;;;;;15.92;100.00;101448.84;2073089;28;20205;-70
2023/10/23 04:19:27;;;;;;;5.37;1.83;;;;;;;15.87;100.00;101441.03;2065121;28;20194;-70
2023/10/23 04:20:29;;;;;;;9.93;1.57;;;;;;;15.94;100.00;101454.78;2071879;28;20439;-70
2023/10/23 04:21:29;;;;;;;4.03;1.40;;;;;;;15.94;100.00;101458.34;2071570;28;20197;-70
2023/10/23 04:22:30;;;;;;;2.67;1.20;;;;;;;15.92;100.00;101463.63;2071382;28;20443;-70
2023/10/23 04:23:31;;;;;;;2.47;1.10;;;;;;;15.70;100.00;101431.22;2068207;28;20735;-71
2023/10/23 04:24:31;;;;;;;2.57;1.23;;;;;;;15.92;100.00;101458.03;2064305;28;20205;-70
2023/10/23 04:25:32;;;;;;;6.93;1.77;;;;;;;15.92;100.00;101462.81;2070553;28;20426;-70
2023/10/23 04:26:32;;;;;;;5.37;1.80;;;;;;;15.53;100.00;101399.03;2071130;28;20686;-71
2023/10/23 04:27:33;;;;;;;3.07;1.50;;;;;;;15.69;100.00;101424.06;2072630;28;20179;-72
2023/10/23 04:28:35;;;;;;;3.60;1.50;;;;;;;15.91;100.00;101467.66;2072554;28;20275;-68
2023/10/23 04:29:35;;;;;;;5.07;1.43;;;;;;;15.77;100.00;101437.38;2072861;28;20194;-67
2023/10/23 04:30:36;;;;;;;5.63;2.83;;;;;;;15.91;100.00;101459.28;2072484;28;20472;-71
2023/10/23 04:31:36;;;;;;;9.40;2.93;;;;;;;15.82;100.00;101452.78;2060147;28;20204;-74
2023/10/23 04:32:37;;;;;;;1.63;1.03;;;;;;;15.32;100.00;101375.31;2059148;28;20542;-75
2023/10/23 04:33:37;;;;;;;6.10;2.80;;;;;;;15.87;100.00;101455.81;2067979;28;20172;-75
2023/10/23 04:34:38;;;;;;;7.40;2.03;;;;;;;15.87;100.00;101458.59;2055178;28;20239;-75
2023/10/23 04:35:38;;;;;;;7.67;1.40;;;;;;;15.89;100.00;101466.53;2056265;28;20739;-72
2023/10/23 04:36:39;;;;;;;2.80;1.10;;;;;;;15.91;100.00;101452.88;2066818;28;20200;-73
2023/10/23 04:37:39;;;;;;;3.20;1.30;;;;;;;15.91;100.00;101464.84;2059982;28;20758;-71
2023/10/23 04:38:39;;;;;;;11.63;3.60;;;;;;;15.90;100.00;101462.50;2062163;28;20201;-72
2023/10/23 04:39:40;;;;;;;9.10;3.63;;;;;;;15.92;100.00;101468.41;2056030;28;20195;-72